sensor_id;sensor_type;location;lat;lon;timestamp;pressure;altitude;pressure_sealevel;temperature;humidity
74936;BME280;63501;55.570;37.488;2023-05-28T00:00:31;98968.44;;;11.52;52.02
74936;BME280;63501;55.570;37.488;2023-05-28T00:02:58;98969.25;;;11.49;52.17
74936;BME280;63501;55.570;37.488;2023-05-28T00:05:25;98966.88;;;11.51;52.24
74936;BME280;63501;55.570;37.488;2023-05-28T00:07:53;98970.81;;;11.50;52.33
74936;BME280;63501;55.570;37.488;2023-05-28T00:10:22;98956.63;;;11.44;52.62
74936;BME280;63501;55.570;37.488;2023-05-28T00:12:49;98963.41;;;11.39;52.89
74936;BME280;63501;55.570;37.488;2023-05-28T00:15:18;98963.44;;;11.36;53.08
74936;BME280;63501;55.570;37.488;2023-05-28T00:17:46;98959.13;;;11.31;52.94
74936;BME280;63501;55.570;37.488;2023-05-28T00:20:13;98956.38;;;11.28;53.11
74936;BME280;63501;55.570;37.488;2023-05-28T00:22:40;98963.16;;;11.23;53.45
74936;BME280;63501;55.570;37.488;2023-05-28T00:25:08;98962.00;;;11.17;53.46
74936;BME280;63501;55.570;37.488;2023-05-28T00:27:36;98962.44;;;11.12;53.70
74936;BME280;63501;55.570;37.488;2023-05-28T00:30:05;98964.06;;;11.06;53.92
74936;BME280;63501;55.570;37.488;2023-05-28T00:32:36;98968.06;;;10.98;54.22
74936;BME280;63501;55.570;37.488;2023-05-28T00:35:05;98965.38;;;10.87;54.58
74936;BME280;63501;55.570;37.488;2023-05-28T00:37:33;98958.69;;;10.81;54.71
74936;BME280;63501;55.570;37.488;2023-05-28T00:40:00;98957.97;;;10.73;54.53
74936;BME280;63501;55.570;37.488;2023-05-28T00:42:29;98961.16;;;10.65;55.34
74936;BME280;63501;55.570;37.488;2023-05-28T00:44:56;98950.94;;;10.58;55.00
74936;BME280;63501;55.570;37.488;2023-05-28T00:47:23;98957.25;;;10.55;55.46
74936;BME280;63501;55.570;37.488;2023-05-28T00:49:52;98954.13;;;10.49;55.48
74936;BME280;63501;55.570;37.488;2023-05-28T00:52:21;98952.16;;;10.46;55.70
74936;BME280;63501;55.570;37.488;2023-05-28T00:54:48;98962.06;;;10.44;55.86
74936;BME280;63501;55.570;37.488;2023-05-28T00:57:16;98962.06;;;10.44;55.71
74936;BME280;63501;55.570;37.488;2023-05-28T00:59:47;98967.19;;;10.42;56.10
74936;BME280;63501;55.570;37.488;2023-05-28T01:02:14;98955.34;;;10.41;56.18
74936;BME280;63501;55.570;37.488;2023-05-28T01:04:42;98954.19;;;10.35;56.48
74936;BME280;63501;55.570;37.488;2023-05-28T01:07:10;98961.72;;;10.31;56.25
74936;BME280;63501;55.570;37.488;2023-05-28T01:09:38;98960.91;;;10.30;56.80
74936;BME280;63501;55.570;37.488;2023-05-28T01:12:06;98958.16;;;10.30;56.92
74936;BME280;63501;55.570;37.488;2023-05-28T01:14:35;98956.22;;;10.27;56.50
74936;BME280;63501;55.570;37.488;2023-05-28T01:17:03;98961.34;;;10.25;57.09
74936;BME280;63501;55.570;37.488;2023-05-28T01:19:31;98958.97;;;10.20;57.14
74936;BME280;63501;55.570;37.488;2023-05-28T01:22:02;98949.13;;;10.12;57.19
74936;BME280;63501;55.570;37.488;2023-05-28T01:24:34;98946.00;;;10.10;57.32
74936;BME280;63501;55.570;37.488;2023-05-28T01:27:03;98953.47;;;10.10;57.53
74936;BME280;63501;55.570;37.488;2023-05-28T01:29:31;98947.16;;;10.09;57.67
74936;BME280;63501;55.570;37.488;2023-05-28T01:31:58;98955.47;;;10.05;57.59
74936;BME280;63501;55.570;37.488;2023-05-28T01:34:26;98953.50;;;10.06;57.86
74936;BME280;63501;55.570;37.488;2023-05-28T01:36:56;98951.13;;;10.08;57.73
74936;BME280;63501;55.570;37.488;2023-05-28T01:39:26;98957.81;;;10.11;57.92
74936;BME280;63501;55.570;37.488;2023-05-28T01:41:55;98969.25;;;10.09;57.99
74936;BME280;63501;55.570;37.488;2023-05-28T01:44:24;98962.56;;;10.06;57.60
74936;BME280;63501;55.570;37.488;2023-05-28T01:46:51;98976.41;;;9.99;58.27
74936;BME280;63501;55.570;37.488;2023-05-28T01:49:20;98965.34;;;9.96;57.70
74936;BME280;63501;55.570;37.488;2023-05-28T01:51:50;98957.47;;;9.94;58.00
74936;BME280;63501;55.570;37.488;2023-05-28T01:54:18;98953.16;;;9.90;58.40
74936;BME280;63501;55.570;37.488;2023-05-28T01:56:45;98960.66;;;9.86;58.84
74936;BME280;63501;55.570;37.488;2023-05-28T01:59:14;98965.78;;;9.84;58.24
74936;BME280;63501;55.570;37.488;2023-05-28T02:01:42;98971.72;;;9.82;58.43
74936;BME280;63501;55.570;37.488;2023-05-28T02:04:09;98970.16;;;9.77;59.15
74936;BME280;63501;55.570;37.488;2023-05-28T02:06:37;98970.53;;;9.72;58.57
74936;BME280;63501;55.570;37.488;2023-05-28T02:09:06;98970.94;;;9.74;59.06
74936;BME280;63501;55.570;37.488;2023-05-28T02:11:33;98972.13;;;9.73;59.10
74936;BME280;63501;55.570;37.488;2023-05-28T02:14:01;98973.31;;;9.72;59.25
74936;BME280;63501;55.570;37.488;2023-05-28T02:16:30;98976.84;;;9.69;59.40
74936;BME280;63501;55.570;37.488;2023-05-28T02:18:58;98975.69;;;9.63;59.53
74936;BME280;63501;55.570;37.488;2023-05-28T02:21:25;98987.53;;;9.60;59.44
74936;BME280;63501;55.570;37.488;2023-05-28T02:23:54;98984.75;;;9.60;59.75
74936;BME280;63501;55.570;37.488;2023-05-28T02:26:21;98983.56;;;9.61;59.47
74936;BME280;63501;55.570;37.488;2023-05-28T02:28:48;98978.06;;;9.61;59.94
74936;BME280;63501;55.570;37.488;2023-05-28T02:31:15;98976.47;;;9.60;59.38
74936;BME280;63501;55.570;37.488;2023-05-28T02:33:45;98982.38;;;9.62;60.09
74936;BME280;63501;55.570;37.488;2023-05-28T02:36:12;98981.97;;;9.64;59.90
74936;BME280;63501;55.570;37.488;2023-05-28T02:38:40;98983.16;;;9.59;59.62
74936;BME280;63501;55.570;37.488;2023-05-28T02:41:12;98984.75;;;9.57;59.98
74936;BME280;63501;55.570;37.488;2023-05-28T02:43:39;98972.94;;;9.49;60.21
74936;BME280;63501;55.570;37.488;2023-05-28T02:46:06;98977.66;;;9.45;60.90
74936;BME280;63501;55.570;37.488;2023-05-28T02:48:34;98979.25;;;9.46;60.68
74936;BME280;63501;55.570;37.488;2023-05-28T02:51:04;98975.69;;;9.52;60.82
74936;BME280;63501;55.570;37.488;2023-05-28T02:53:31;98978.84;;;9.58;60.72
74936;BME280;63501;55.570;37.488;2023-05-28T02:55:58;98971.34;;;9.62;60.51
74936;BME280;63501;55.570;37.488;2023-05-28T02:58:25;98978.03;;;9.68;59.96
74936;BME280;63501;55.570;37.488;2023-05-28T03:00:54;98980.41;;;9.73;60.34
74936;BME280;63501;55.570;37.488;2023-05-28T03:03:21;98985.13;;;9.76;60.74
74936;BME280;63501;55.570;37.488;2023-05-28T03:05:48;98983.53;;;9.83;60.45
74936;BME280;63501;55.570;37.488;2023-05-28T03:08:17;98978.41;;;9.88;60.32
74936;BME280;63501;55.570;37.488;2023-05-28T03:10:44;98977.19;;;9.93;59.94
74936;BME280;63501;55.570;37.488;2023-05-28T03:13:11;98981.94;;;9.96;60.02
74936;BME280;63501;55.570;37.488;2023-05-28T03:15:38;98980.34;;;9.95;60.27
74936;BME280;63501;55.570;37.488;2023-05-28T03:18:06;98983.13;;;9.91;60.21
74936;BME280;63501;55.570;37.488;2023-05-28T03:20:33;98985.09;;;9.91;60.50
74936;BME280;63501;55.570;37.488;2023-05-28T03:23:00;98985.88;;;9.95;60.40
74936;BME280;63501;55.570;37.488;2023-05-28T03:25:29;98985.06;;;9.98;60.25
74936;BME280;63501;55.570;37.488;2023-05-28T03:27:56;98982.72;;;9.96;60.66
74936;BME280;63501;55.570;37.488;2023-05-28T03:30:23;98985.09;;;9.94;60.68
74936;BME280;63501;55.570;37.488;2023-05-28T03:32:50;98989.44;;;9.92;60.75
74936;BME280;63501;55.570;37.488;2023-05-28T03:35:18;98987.06;;;9.90;61.28
74936;BME280;63501;55.570;37.488;2023-05-28T03:37:46;98994.56;;;9.93;60.79
74936;BME280;63501;55.570;37.488;2023-05-28T03:40:13;98996.94;;;9.95;60.47
74936;BME280;63501;55.570;37.488;2023-05-28T03:42:41;98988.63;;;9.91;61.10
74936;BME280;63501;55.570;37.488;2023-05-28T03:45:10;98981.97;;;9.89;60.96
74936;BME280;63501;55.570;37.488;2023-05-28T03:47:37;98989.81;;;9.87;61.11
74936;BME280;63501;55.570;37.488;2023-05-28T03:50:06;98984.72;;;9.81;60.92
74936;BME280;63501;55.570;37.488;2023-05-28T03:52:33;98991.03;;;9.78;61.33
74936;BME280;63501;55.570;37.488;2023-05-28T03:55:00;98988.66;;;9.80;61.29
74936;BME280;63501;55.570;37.488;2023-05-28T03:57:29;98995.75;;;9.89;60.93
74936;BME280;63501;55.570;37.488;2023-05-28T03:59:58;98988.63;;;9.91;61.06
74936;BME280;63501;55.570;37.488;2023-05-28T04:02:25;98987.84;;;9.91;61.31
74936;BME280;63501;55.570;37.488;2023-05-28T04:04:52;98988.25;;;9.89;61.14
74936;BME280;63501;55.570;37.488;2023-05-28T04:07:19;98994.97;;;9.88;61.48
74936;BME280;63501;55.570;37.488;2023-05-28T04:09:48;98998.91;;;9.91;60.79
74936;BME280;63501;55.570;37.488;2023-05-28T04:12:15;99001.66;;;9.94;61.27
74936;BME280;63501;55.570;37.488;2023-05-28T04:14:42;99003.22;;;10.06;60.91
74936;BME280;63501;55.570;37.488;2023-05-28T04:17:12;99006.31;;;10.26;60.99
74936;BME280;63501;55.570;37.488;2023-05-28T04:19:39;99008.22;;;10.47;60.20
74936;BME280;63501;55.570;37.488;2023-05-28T04:22:07;99007.00;;;10.58;59.99
74936;BME280;63501;55.570;37.488;2023-05-28T04:24:34;98999.81;;;10.72;59.76
74936;BME280;63501;55.570;37.488;2023-05-28T04:27:01;98997.75;;;10.86;59.61
74936;BME280;63501;55.570;37.488;2023-05-28T04:29:28;99007.56;;;11.02;59.20
74936;BME280;63501;55.570;37.488;2023-05-28T04:31:56;99005.09;;;11.15;58.93
74936;BME280;63501;55.570;37.488;2023-05-28T04:34:25;99006.63;;;11.23;58.80
74936;BME280;63501;55.570;37.488;2023-05-28T04:36:52;98997.88;;;11.28;58.64
74936;BME280;63501;55.570;37.488;2023-05-28T04:39:22;99003.03;;;11.29;58.62
74936;BME280;63501;55.570;37.488;2023-05-28T04:41:49;99008.94;;;11.31;59.06
74936;BME280;63501;55.570;37.488;2023-05-28T04:44:19;99004.56;;;11.34;58.74
74936;BME280;63501;55.570;37.488;2023-05-28T04:46:46;99002.94;;;11.40;58.33
74936;BME280;63501;55.570;37.488;2023-05-28T04:49:14;98994.16;;;11.49;58.38
74936;BME280;63501;55.570;37.488;2023-05-28T04:51:42;98992.84;;;11.64;58.04
74936;BME280;63501;55.570;37.488;2023-05-28T04:54:09;98998.31;;;11.71;57.75
74936;BME280;63501;55.570;37.488;2023-05-28T04:56:36;98990.41;;;11.73;57.72
74936;BME280;63501;55.570;37.488;2023-05-28T04:59:04;98999.09;;;11.72;57.97
74936;BME280;63501;55.570;37.488;2023-05-28T05:01:35;99000.63;;;11.76;58.15
74936;BME280;63501;55.570;37.488;2023-05-28T05:04:05;98987.97;;;11.79;57.74
74936;BME280;63501;55.570;37.488;2023-05-28T05:06:32;98993.53;;;11.75;57.74
74936;BME280;63501;55.570;37.488;2023-05-28T05:09:01;98990.63;;;11.89;58.21
74936;BME280;63501;55.570;37.488;2023-05-28T05:11:28;98979.78;;;12.06;57.73
74936;BME280;63501;55.570;37.488;2023-05-28T05:13:56;98982.75;;;12.26;57.24
74936;BME280;63501;55.570;37.488;2023-05-28T05:16:24;98978.53;;;12.44;56.70
74936;BME280;63501;55.570;37.488;2023-05-28T05:18:53;98978.97;;;12.43;57.38
74936;BME280;63501;55.570;37.488;2023-05-28T05:21:20;98984.50;;;12.43;56.92
74936;BME280;63501;55.570;37.488;2023-05-28T05:23:48;98991.34;;;12.35;56.77
74936;BME280;63501;55.570;37.488;2023-05-28T05:26:17;98977.50;;;12.35;56.99
74936;BME280;63501;55.570;37.488;2023-05-28T05:28:44;98982.72;;;12.60;56.77
74936;BME280;63501;55.570;37.488;2023-05-28T05:31:11;98984.81;;;12.79;56.33
74936;BME280;63501;55.570;37.488;2023-05-28T05:33:40;98981.81;;;12.97;55.95
74936;BME280;63501;55.570;37.488;2023-05-28T05:36:08;98982.50;;;13.05;55.61
74936;BME280;63501;55.570;37.488;2023-05-28T05:38:36;98984.44;;;13.08;55.58
74936;BME280;63501;55.570;37.488;2023-05-28T05:41:08;98996.78;;;13.03;55.73
74936;BME280;63501;55.570;37.488;2023-05-28T05:43:37;98990.38;;;13.06;55.84
74936;BME280;63501;55.570;37.488;2023-05-28T05:46:04;98993.91;;;13.10;55.62
74936;BME280;63501;55.570;37.488;2023-05-28T05:48:40;98986.72;;;13.13;55.89
74936;BME280;63501;55.570;37.488;2023-05-28T05:51:10;98990.00;;;13.08;55.77
74936;BME280;63501;55.570;37.488;2023-05-28T05:53:42;98991.75;;;12.94;55.13
74936;BME280;63501;55.570;37.488;2023-05-28T05:56:10;98997.41;;;12.87;55.61
74936;BME280;63501;55.570;37.488;2023-05-28T05:58:39;98998.63;;;12.86;55.46
74936;BME280;63501;55.570;37.488;2023-05-28T06:02:52;98989.88;;;12.88;55.23
74936;BME280;63501;55.570;37.488;2023-05-28T06:04:50;98995.72;;;12.93;56.13
74936;BME280;63501;55.570;37.488;2023-05-28T06:07:19;98998.47;;;12.97;55.22
74936;BME280;63501;55.570;37.488;2023-05-28T06:09:46;98999.72;;;12.92;55.42
74936;BME280;63501;55.570;37.488;2023-05-28T06:12:14;98996.56;;;12.90;55.54
74936;BME280;63501;55.570;37.488;2023-05-28T06:14:48;99005.25;;;12.92;55.53
74936;BME280;63501;55.570;37.488;2023-05-28T06:17:17;99007.88;;;13.03;55.25
74936;BME280;63501;55.570;37.488;2023-05-28T06:19:54;99009.94;;;12.99;55.89
74936;BME280;63501;55.570;37.488;2023-05-28T06:22:22;99005.19;;;12.96;55.68
74936;BME280;63501;55.570;37.488;2023-05-28T06:24:49;99012.66;;;13.03;55.72
74936;BME280;63501;55.570;37.488;2023-05-28T06:27:19;99006.56;;;13.11;55.43
74936;BME280;63501;55.570;37.488;2023-05-28T06:29:48;99014.78;;;13.22;55.71
74936;BME280;63501;55.570;37.488;2023-05-28T06:32:16;99017.91;;;13.24;55.87
74936;BME280;63501;55.570;37.488;2023-05-28T06:34:44;99021.63;;;13.14;55.47
74936;BME280;63501;55.570;37.488;2023-05-28T06:37:11;99025.66;;;13.09;55.23
74936;BME280;63501;55.570;37.488;2023-05-28T06:39:38;99026.53;;;13.03;55.54
74936;BME280;63501;55.570;37.488;2023-05-28T06:42:06;99028.13;;;13.00;55.93
74936;BME280;63501;55.570;37.488;2023-05-28T06:44:36;99044.00;;;13.00;55.63
74936;BME280;63501;55.570;37.488;2023-05-28T06:47:05;99032.63;;;12.90;56.16
74936;BME280;63501;55.570;37.488;2023-05-28T06:49:32;99040.63;;;12.85;56.04
74936;BME280;63501;55.570;37.488;2023-05-28T06:51:59;99042.13;;;12.93;56.12
74936;BME280;63501;55.570;37.488;2023-05-28T06:54:27;99045.38;;;13.15;55.56
74936;BME280;63501;55.570;37.488;2023-05-28T06:56:54;99041.97;;;13.58;54.52
74936;BME280;63501;55.570;37.488;2023-05-28T06:59:21;99038.50;;;14.00;53.26
74936;BME280;63501;55.570;37.488;2023-05-28T07:01:49;99021.50;;;14.38;53.56
74936;BME280;63501;55.570;37.488;2023-05-28T07:04:17;99020.53;;;14.68;51.75
74936;BME280;63501;55.570;37.488;2023-05-28T07:06:44;99021.06;;;14.79;51.99
74936;BME280;63501;55.570;37.488;2023-05-28T07:09:12;99028.09;;;14.68;51.53
74936;BME280;63501;55.570;37.488;2023-05-28T07:11:39;99034.03;;;14.46;52.67
74936;BME280;63501;55.570;37.488;2023-05-28T07:14:07;99030.91;;;14.44;52.72
74936;BME280;63501;55.570;37.488;2023-05-28T07:16:35;99026.81;;;14.52;52.40
74936;BME280;63501;55.570;37.488;2023-05-28T07:19:02;99031.53;;;14.55;52.15
74936;BME280;63501;55.570;37.488;2023-05-28T07:21:30;99025.81;;;14.63;52.36
74936;BME280;63501;55.570;37.488;2023-05-28T07:23:58;99028.97;;;14.65;52.14
74936;BME280;63501;55.570;37.488;2023-05-28T07:26:26;99020.81;;;14.74;51.50
74936;BME280;63501;55.570;37.488;2023-05-28T07:28:53;99014.94;;;14.88;51.70
74936;BME280;63501;55.570;37.488;2023-05-28T07:31:20;99016.00;;;14.94;51.19
74936;BME280;63501;55.570;37.488;2023-05-28T07:33:49;99018.44;;;15.08;50.85
74936;BME280;63501;55.570;37.488;2023-05-28T07:36:17;99017.09;;;15.33;51.62
74936;BME280;63501;55.570;37.488;2023-05-28T07:38:46;99023.53;;;15.30;50.73
74936;BME280;63501;55.570;37.488;2023-05-28T07:41:13;99026.63;;;14.99;51.28
74936;BME280;63501;55.570;37.488;2023-05-28T07:43:40;99024.25;;;14.62;51.61
74936;BME280;63501;55.570;37.488;2023-05-28T07:46:07;99032.69;;;14.35;52.18
74936;BME280;63501;55.570;37.488;2023-05-28T07:48:34;99032.09;;;14.03;52.64
74936;BME280;63501;55.570;37.488;2023-05-28T07:51:02;99040.25;;;13.67;54.14
74936;BME280;63501;55.570;37.488;2023-05-28T07:53:29;99043.66;;;13.52;54.41
74936;BME280;63501;55.570;37.488;2023-05-28T07:55:58;99047.78;;;13.43;54.12
74936;BME280;63501;55.570;37.488;2023-05-28T07:58:26;99045.00;;;13.43;54.86
74936;BME280;63501;55.570;37.488;2023-05-28T08:00:53;99054.59;;;13.62;53.85
74936;BME280;63501;55.570;37.488;2023-05-28T08:03:20;99043.94;;;13.84;54.04
74936;BME280;63501;55.570;37.488;2023-05-28T08:05:47;99053.31;;;14.14;52.53
74936;BME280;63501;55.570;37.488;2023-05-28T08:08:15;99057.72;;;14.35;53.21
74936;BME280;63501;55.570;37.488;2023-05-28T08:10:42;99056.50;;;14.36;51.89
74936;BME280;63501;55.570;37.488;2023-05-28T08:13:11;99062.94;;;14.33;52.52
74936;BME280;63501;55.570;37.488;2023-05-28T08:15:38;99055.81;;;14.32;52.80
74936;BME280;63501;55.570;37.488;2023-05-28T08:18:05;99056.44;;;14.39;52.60
74936;BME280;63501;55.570;37.488;2023-05-28T08:20:32;99063.41;;;14.51;52.66
74936;BME280;63501;55.570;37.488;2023-05-28T08:23:00;99049.63;;;14.64;51.35
74936;BME280;63501;55.570;37.488;2023-05-28T08:25:28;99053.19;;;14.84;52.14
74936;BME280;63501;55.570;37.488;2023-05-28T08:27:56;99047.00;;;15.13;51.00
74936;BME280;63501;55.570;37.488;2023-05-28T08:30:24;99050.63;;;15.62;50.31
74936;BME280;63501;55.570;37.488;2023-05-28T08:32:52;99046.88;;;16.18;49.37
74936;BME280;63501;55.570;37.488;2023-05-28T08:35:19;99045.59;;;16.64;47.94
74936;BME280;63501;55.570;37.488;2023-05-28T08:37:49;99032.28;;;16.84;47.29
74936;BME280;63501;55.570;37.488;2023-05-28T08:40:17;99036.34;;;17.09;46.79
74936;BME280;63501;55.570;37.488;2023-05-28T08:42:44;99035.78;;;17.27;46.38
74936;BME280;63501;55.570;37.488;2023-05-28T08:45:12;99036.13;;;17.29;46.49
74936;BME280;63501;55.570;37.488;2023-05-28T08:47:45;99031.53;;;17.35;45.06
74936;BME280;63501;55.570;37.488;2023-05-28T08:50:18;99028.47;;;17.67;44.32
74936;BME280;63501;55.570;37.488;2023-05-28T08:52:48;99027.81;;;17.89;44.02
74936;BME280;63501;55.570;37.488;2023-05-28T08:55:18;99031.16;;;17.96;43.57
74936;BME280;63501;55.570;37.488;2023-05-28T08:57:46;99029.88;;;18.10;43.06
74936;BME280;63501;55.570;37.488;2023-05-28T09:00:14;99029.72;;;18.27;43.17
74936;BME280;63501;55.570;37.488;2023-05-28T09:02:43;99032.50;;;18.27;42.92
74936;BME280;63501;55.570;37.488;2023-05-28T09:05:11;99030.69;;;18.33;41.84
74936;BME280;63501;55.570;37.488;2023-05-28T09:07:38;99042.00;;;18.29;41.60
74936;BME280;63501;55.570;37.488;2023-05-28T09:10:07;99036.47;;;18.38;41.19
74936;BME280;63501;55.570;37.488;2023-05-28T09:12:35;99035.97;;;18.31;40.85
74936;BME280;63501;55.570;37.488;2023-05-28T09:15:05;99039.25;;;18.16;41.30
74936;BME280;63501;55.570;37.488;2023-05-28T09:17:34;99041.78;;;18.02;41.70
74936;BME280;63501;55.570;37.488;2023-05-28T09:20:11;99049.59;;;17.94;41.40
74936;BME280;63501;55.570;37.488;2023-05-28T09:22:39;99058.13;;;17.78;41.77
74936;BME280;63501;55.570;37.488;2023-05-28T09:25:09;99045.41;;;17.77;41.68
74936;BME280;63501;55.570;37.488;2023-05-28T09:27:36;99053.88;;;17.60;41.67
74936;BME280;63501;55.570;37.488;2023-05-28T09:30:05;99070.66;;;17.35;42.53
74936;BME280;63501;55.570;37.488;2023-05-28T09:32:34;99058.59;;;17.38;41.88
74936;BME280;63501;55.570;37.488;2023-05-28T09:35:04;99055.84;;;18.89;39.80
74936;BME280;63501;55.570;37.488;2023-05-28T09:37:36;99037.78;;;20.75;38.16
74936;BME280;63501;55.570;37.488;2023-05-28T09:40:05;99029.84;;;21.91;35.85
74936;BME280;63501;55.570;37.488;2023-05-28T09:42:39;99018.66;;;22.99;34.75
74936;BME280;63501;55.570;37.488;2023-05-28T09:45:09;99029.63;;;23.26;33.33
74936;BME280;63501;55.570;37.488;2023-05-28T09:47:41;99034.34;;;22.61;34.46
74936;BME280;63501;55.570;37.488;2023-05-28T09:50:09;99035.75;;;23.10;34.14
74936;BME280;63501;55.570;37.488;2023-05-28T09:52:39;99034.34;;;23.64;33.22
74936;BME280;63501;55.570;37.488;2023-05-28T09:55:13;99026.03;;;24.16;33.13
74936;BME280;63501;55.570;37.488;2023-05-28T09:57:45;99037.75;;;24.70;32.48
74936;BME280;63501;55.570;37.488;2023-05-28T10:00:17;99028.94;;;25.15;32.20
74936;BME280;63501;55.570;37.488;2023-05-28T10:02:55;99032.16;;;25.33;31.80
74936;BME280;63501;55.570;37.488;2023-05-28T10:05:28;99030.09;;;25.34;31.16
74936;BME280;63501;55.570;37.488;2023-05-28T10:08:00;99015.09;;;25.59;30.81
74936;BME280;63501;55.570;37.488;2023-05-28T10:10:30;99017.19;;;26.07;30.26
74936;BME280;63501;55.570;37.488;2023-05-28T10:12:58;99012.88;;;26.29;29.57
74936;BME280;63501;55.570;37.488;2023-05-28T10:15:25;99015.75;;;26.34;29.35
74936;BME280;63501;55.570;37.488;2023-05-28T10:17:53;99020.84;;;26.19;28.98
74936;BME280;63501;55.570;37.488;2023-05-28T10:20:28;99013.66;;;26.29;28.60
74936;BME280;63501;55.570;37.488;2023-05-28T10:23:00;99012.50;;;26.70;28.38
74936;BME280;63501;55.570;37.488;2023-05-28T10:25:28;99004.28;;;26.83;28.09
74936;BME280;63501;55.570;37.488;2023-05-28T10:27:58;99009.44;;;26.90;28.70
74936;BME280;63501;55.570;37.488;2023-05-28T10:30:32;99006.59;;;26.73;28.66
74936;BME280;63501;55.570;37.488;2023-05-28T10:33:03;99017.66;;;26.82;28.53
74936;BME280;63501;55.570;37.488;2023-05-28T10:35:33;99013.06;;;27.02;28.49
74936;BME280;63501;55.570;37.488;2023-05-28T10:38:13;99018.53;;;27.17;28.04
74936;BME280;63501;55.570;37.488;2023-05-28T10:40:40;99016.19;;;27.21;27.85
74936;BME280;63501;55.570;37.488;2023-05-28T10:46:16;99011.00;;;27.70;27.48
74936;BME280;63501;55.570;37.488;2023-05-28T10:49:12;99004.69;;;27.99;26.80
74936;BME280;63501;55.570;37.488;2023-05-28T10:54:51;99000.34;;;27.92;26.47
74936;BME280;63501;55.570;37.488;2023-05-28T10:57:21;99010.28;;;28.21;26.33
74936;BME280;63501;55.570;37.488;2023-05-28T10:59:50;98997.28;;;28.43;25.94
74936;BME280;63501;55.570;37.488;2023-05-28T11:02:21;98997.84;;;28.36;25.98
74936;BME280;63501;55.570;37.488;2023-05-28T11:04:52;99006.31;;;27.78;26.43
74936;BME280;63501;55.570;37.488;2023-05-28T11:07:22;99004.50;;;27.69;27.26
74936;BME280;63501;55.570;37.488;2023-05-28T11:09:51;99009.44;;;27.57;26.81
74936;BME280;63501;55.570;37.488;2023-05-28T11:12:34;98995.97;;;27.80;26.51
74936;BME280;63501;55.570;37.488;2023-05-28T11:15:02;99004.03;;;27.37;26.88
74936;BME280;63501;55.570;37.488;2023-05-28T11:17:35;99002.16;;;26.44;27.92
74936;BME280;63501;55.570;37.488;2023-05-28T11:20:03;99020.88;;;26.30;28.28
74936;BME280;63501;55.570;37.488;2023-05-28T11:22:33;99008.41;;;26.93;27.48
74936;BME280;63501;55.570;37.488;2023-05-28T11:25:05;99011.25;;;27.43;26.87
74936;BME280;63501;55.570;37.488;2023-05-28T11:27:34;99005.69;;;28.13;26.52
74936;BME280;63501;55.570;37.488;2023-05-28T11:30:07;99001.88;;;28.57;25.93
74936;BME280;63501;55.570;37.488;2023-05-28T11:32:35;99006.97;;;28.17;25.93
74936;BME280;63501;55.570;37.488;2023-05-28T11:35:03;99002.19;;;28.48;25.96
74936;BME280;63501;55.570;37.488;2023-05-28T11:37:33;99003.09;;;29.09;25.71
74936;BME280;63501;55.570;37.488;2023-05-28T11:40:03;99005.50;;;29.59;25.04
74936;BME280;63501;55.570;37.488;2023-05-28T11:42:33;99003.06;;;29.69;24.94
74936;BME280;63501;55.570;37.488;2023-05-28T11:45:00;98992.44;;;29.69;24.80
74936;BME280;63501;55.570;37.488;2023-05-28T11:47:33;98996.69;;;29.57;24.97
74936;BME280;63501;55.570;37.488;2023-05-28T11:50:05;98993.38;;;29.53;25.01
74936;BME280;63501;55.570;37.488;2023-05-28T11:52:33;98999.09;;;28.46;25.71
74936;BME280;63501;55.570;37.488;2023-05-28T11:55:00;99006.44;;;28.19;26.15
74936;BME280;63501;55.570;37.488;2023-05-28T11:57:30;99009.19;;;27.50;26.92
74936;BME280;63501;55.570;37.488;2023-05-28T12:00:02;99016.19;;;26.10;27.90
74936;BME280;63501;55.570;37.488;2023-05-28T12:02:32;99028.78;;;24.51;28.98
74936;BME280;63501;55.570;37.488;2023-05-28T12:05:01;99026.69;;;23.85;30.05
74936;BME280;63501;55.570;37.488;2023-05-28T12:07:33;99021.31;;;24.74;29.85
74936;BME280;63501;55.570;37.488;2023-05-28T12:10:06;99024.28;;;25.86;28.86
74936;BME280;63501;55.570;37.488;2023-05-28T12:12:34;99003.78;;;27.01;27.46
74936;BME280;63501;55.570;37.488;2023-05-28T12:15:04;98993.88;;;27.92;26.85
74936;BME280;63501;55.570;37.488;2023-05-28T12:17:35;98992.00;;;28.64;26.02
74936;BME280;63501;55.570;37.488;2023-05-28T12:20:27;98981.44;;;28.94;25.49
74936;BME280;63501;55.570;37.488;2023-05-28T12:23:00;98997.25;;;29.25;25.40
74936;BME280;63501;55.570;37.488;2023-05-28T12:25:27;98998.34;;;28.40;25.37
74936;BME280;63501;55.570;37.488;2023-05-28T12:27:54;99006.59;;;26.84;26.92
74936;BME280;63501;55.570;37.488;2023-05-28T12:30:23;99009.63;;;26.47;26.79
74936;BME280;63501;55.570;37.488;2023-05-28T12:32:50;99006.13;;;27.31;26.30
74936;BME280;63501;55.570;37.488;2023-05-28T12:35:18;98997.66;;;28.11;25.69
74936;BME280;63501;55.570;37.488;2023-05-28T12:37:45;98991.00;;;28.56;25.08
74936;BME280;63501;55.570;37.488;2023-05-28T12:40:12;99013.97;;;28.05;25.25
74936;BME280;63501;55.570;37.488;2023-05-28T12:42:39;99028.47;;;25.96;26.78
74936;BME280;63501;55.570;37.488;2023-05-28T12:45:08;99037.34;;;24.16;27.96
74936;BME280;63501;55.570;37.488;2023-05-28T12:47:38;99058.19;;;22.75;29.52
74936;BME280;63501;55.570;37.488;2023-05-28T12:50:06;99080.38;;;21.62;32.45
74936;BME280;63501;55.570;37.488;2023-05-28T12:52:34;99102.56;;;20.53;33.50
74936;BME280;63501;55.570;37.488;2023-05-28T12:55:01;99120.22;;;19.55;35.24
74936;BME280;63501;55.570;37.488;2023-05-28T12:57:30;99122.69;;;18.78;37.09
74936;BME280;63501;55.570;37.488;2023-05-28T12:59:58;99124.53;;;18.24;37.79
74936;BME280;63501;55.570;37.488;2023-05-28T13:02:31;99122.47;;;17.90;38.40
74936;BME280;63501;55.570;37.488;2023-05-28T13:05:01;99122.22;;;17.72;39.57
74936;BME280;63501;55.570;37.488;2023-05-28T13:07:29;99123.09;;;17.56;40.07